Time;durP1;ratioP1;P1;durP2;ratioP2;P2;SDS_P1;SDS_P2;PMS_P1;PMS_P2;Temp;Humidity;BMP_temperature;BMP_pressure;BME280_temperature;BME280_humidity;BME280_pressure;Samples;Min_cycle;Max_cycle;Signal;HPM_P1;HPM_P2
2022/12/28 00:00:47;;;;;;;4.03;2.35;;;;;;;-2.05;100.00;93684.34;2581780;22;20075;-86
2022/12/28 00:01:48;;;;;;;3.17;2.38;;;;;;;-2.06;100.00;93692.53;2581507;22;20012;-86
2022/12/28 00:02:55;;;;;;;4.90;1.80;;;;;;;-1.98;100.00;93696.91;2581867;23;20000;-85
2022/12/28 00:04:02;;;;;;;1.80;1.63;;;;;;;-2.01;100.00;93692.34;2583101;22;20084;-87
2022/12/28 00:05:03;;;;;;;2.08;1.65;;;;;;;-2.00;100.00;93678.13;2594480;22;20419;-86
2022/12/28 00:06:05;;;;;;;3.28;1.88;;;;;;;-1.99;100.00;93684.91;2568629;23;20005;-86
2022/12/28 00:07:13;;;;;;;2.60;1.60;;;;;;;-1.98;100.00;93685.66;2559382;23;20008;-87
2022/12/28 00:08:15;;;;;;;1.80;1.50;;;;;;;-2.01;100.00;93681.09;2558386;23;19997;-87
2022/12/28 00:09:16;;;;;;;2.42;1.50;;;;;;;-1.96;100.00;93678.28;2581399;22;20109;-88
2022/12/28 00:10:17;;;;;;;2.08;1.30;;;;;;;-1.93;100.00;93678.41;2569116;23;20396;-88
2022/12/28 00:11:26;;;;;;;2.70;1.40;;;;;;;-1.92;100.00;93679.16;2559240;23;20024;-88
2022/12/28 00:12:31;;;;;;;2.78;1.70;;;;;;;-1.90;100.00;93677.72;2572800;22;20075;-85
2022/12/28 00:13:34;;;;;;;3.45;1.50;;;;;;;-1.89;100.00;93665.38;2581425;23;20012;-88
2022/12/28 00:14:35;;;;;;;2.75;1.63;;;;;;;-1.79;100.00;93671.00;2581732;22;20115;-87
2022/12/28 00:15:36;;;;;;;4.45;1.40;;;;;;;-1.84;100.00;93673.84;2581741;23;20012;-87
2022/12/28 00:16:39;;;;;;;2.45;1.55;;;;;;;-1.86;100.00;93664.75;2569281;22;20005;-87
2022/12/28 00:17:41;;;;;;;3.10;1.42;;;;;;;-1.80;100.00;93664.25;2569734;23;20055;-87
2022/12/28 00:18:42;;;;;;;2.97;1.48;;;;;;;-1.77;100.00;93666.19;2556622;23;20608;-86
2022/12/28 00:19:43;;;;;;;2.25;1.10;;;;;;;-1.64;100.00;93666.22;2556459;23;20076;-88
2022/12/28 00:20:44;;;;;;;1.35;1.20;;;;;;;-1.54;100.00;93669.22;2568854;23;20001;-86
2022/12/28 00:21:45;;;;;;;1.67;1.17;;;;;;;-1.53;100.00;93665.50;2568346;23;20005;-87
2022/12/28 00:22:50;;;;;;;2.50;1.10;;;;;;;-1.53;100.00;93662.88;2570887;22;20363;-86
2022/12/28 00:23:54;;;;;;;3.25;1.23;;;;;;;-1.57;100.00;93666.47;2568795;23;20083;-86
2022/12/28 00:24:55;;;;;;;2.17;1.27;;;;;;;-1.43;100.00;93663.53;2570227;22;20011;-85
2022/12/28 00:26:04;;;;;;;3.20;1.38;;;;;;;-1.46;100.00;93666.81;2581636;23;20036;-86
2022/12/28 00:27:05;;;;;;;3.30;1.40;;;;;;;-1.47;100.00;93665.28;2570808;23;20763;-87
2022/12/28 00:28:06;;;;;;;3.25;1.13;;;;;;;-1.27;100.00;93659.94;2556396;23;20005;-87
2022/12/28 00:29:07;;;;;;;4.82;1.73;;;;;;;-1.24;100.00;93663.00;2568791;23;20042;-86
2022/12/28 00:30:09;;;;;;;2.80;1.08;;;;;;;-0.94;100.00;93666.94;2569598;22;20008;-87
2022/12/28 00:31:11;;;;;;;2.17;1.13;;;;;;;-0.76;100.00;93665.59;2569174;23;20027;-87
2022/12/28 00:32:12;;;;;;;3.13;1.30;;;;;;;-0.94;100.00;93666.16;2557299;23;20009;-85
2022/12/28 00:33:13;;;;;;;2.08;1.42;;;;;;;-0.97;100.00;93669.44;2556199;23;20007;-88
2022/12/28 00:34:14;;;;;;;1.55;1.02;;;;;;;-0.96;100.00;93669.13;2568756;22;20043;-87
2022/12/28 00:35:15;;;;;;;2.25;1.08;;;;;;;-0.83;100.00;93668.03;2569123;23;20065;-85
2022/12/28 00:36:20;;;;;;;1.60;1.05;;;;;;;-0.94;100.00;93660.91;2557804;23;20083;-85
2022/12/28 00:37:24;;;;;;;2.67;1.40;;;;;;;-0.89;100.00;93658.06;2559057;23;20059;-85
2022/12/28 00:38:39;;;;;;;2.08;1.45;;;;;;;-0.94;100.00;93664.31;2562726;23;20009;-84
2022/12/28 00:39:43;;;;;;;2.42;1.30;;;;;;;-1.02;100.00;93667.81;2573052;22;20005;-84
2022/12/28 00:40:44;;;;;;;2.58;1.00;;;;;;;-1.03;100.00;93659.16;2581419;23;20054;-88
2022/12/28 00:41:47;;;;;;;2.15;0.90;;;;;;;-0.96;100.00;93657.88;2570312;23;20012;-88
2022/12/28 00:42:49;;;;;;;2.33;1.17;;;;;;;-0.92;100.00;93656.09;2558096;23;20009;-87
2022/12/28 00:43:50;;;;;;;2.15;1.08;;;;;;;-0.95;100.00;93657.53;2582538;22;20344;-87
2022/12/28 00:44:51;;;;;;;1.27;1.10;;;;;;;-0.96;100.00;93658.63;2569680;23;20005;-87
2022/12/28 00:45:52;;;;;;;2.03;1.23;;;;;;;-0.93;100.00;93654.56;2557434;23;20107;-85
2022/12/28 00:46:53;;;;;;;2.17;1.35;;;;;;;-0.86;100.00;93655.56;2557525;23;20023;-84
2022/12/28 00:47:56;;;;;;;3.00;1.50;;;;;;;-0.56;100.00;93652.66;2557319;23;20471;-86
2022/12/28 00:48:57;;;;;;;1.45;1.20;;;;;;;-0.59;100.00;93648.84;2582444;23;20008;-87
2022/12/28 00:49:58;;;;;;;1.67;0.95;;;;;;;-0.66;100.00;93646.03;2569622;23;20067;-84
2022/12/28 00:51:10;;;;;;;2.63;1.05;;;;;;;-0.61;100.00;93653.66;2557401;23;20012;-86
2022/12/28 00:52:11;;;;;;;3.65;1.20;;;;;;;-0.60;100.00;93651.81;2572239;23;20020;-87
2022/12/28 00:53:13;;;;;;;1.50;0.85;;;;;;;-0.59;100.00;93650.69;2582240;23;20396;-88
2022/12/28 00:54:14;;;;;;;1.55;0.93;;;;;;;-0.65;100.00;93654.66;2569675;22;20009;-85
2022/12/28 00:55:15;;;;;;;2.08;0.90;;;;;;;-0.53;100.00;93652.78;2582324;22;20008;-87
2022/12/28 00:56:18;;;;;;;1.95;0.90;;;;;;;-0.53;100.00;93646.75;2569657;23;20182;-86
2022/12/28 00:57:24;;;;;;;1.25;0.70;;;;;;;-0.63;100.00;93644.56;2570054;23;20162;-87
2022/12/28 00:58:27;;;;;;;3.10;1.00;;;;;;;-0.66;100.00;93647.84;2570477;22;20009;-87
2022/12/28 00:59:28;;;;;;;1.65;0.88;;;;;;;-0.61;100.00;93647.66;2582700;22;20012;-85
2022/12/28 01:00:30;;;;;;;0.82;0.80;;;;;;;-0.53;100.00;93642.28;2581961;23;20032;-86
2022/12/28 01:01:37;;;;;;;1.35;0.82;;;;;;;-0.57;100.00;93641.41;2570299;23;20087;-87
2022/12/28 01:02:44;;;;;;;1.98;0.90;;;;;;;-0.61;100.00;93648.41;2561979;23;20001;-86
2022/12/28 01:03:55;;;;;;;1.52;1.02;;;;;;;-0.63;100.00;93655.84;2558419;23;20028;-87
2022/12/28 01:04:56;;;;;;;1.60;0.80;;;;;;;-0.55;100.00;93651.56;2571691;23;20437;-84
2022/12/28 01:05:57;;;;;;;3.95;0.98;;;;;;;-0.57;100.00;93649.28;2569641;23;20011;-87
2022/12/28 01:07:00;;;;;;;1.70;0.88;;;;;;;-0.43;100.00;93645.53;2570214;23;20039;-86
2022/12/28 01:08:01;;;;;;;3.88;0.80;;;;;;;-0.51;100.00;93642.69;2557869;23;20341;-86
2022/12/28 01:09:04;;;;;;;2.30;0.77;;;;;;;-0.58;100.00;93645.09;2557110;23;20009;-86
2022/12/28 01:10:06;;;;;;;3.05;1.20;;;;;;;-0.60;100.00;93644.69;2558055;23;20008;-85
2022/12/28 01:11:07;;;;;;;1.40;0.88;;;;;;;-0.61;100.00;93645.78;2569952;23;20455;-87
2022/12/28 01:12:12;;;;;;;1.25;1.08;;;;;;;-0.62;100.00;93649.50;2559092;23;20009;-88
2022/12/28 01:13:14;;;;;;;1.15;0.73;;;;;;;-0.64;100.00;93648.31;2558218;23;20005;-85
2022/12/28 01:14:15;;;;;;;2.50;1.08;;;;;;;-0.64;100.00;93643.06;2569902;23;20074;-88
2022/12/28 01:15:16;;;;;;;5.25;1.52;;;;;;;-0.51;100.00;93636.69;2582070;23;20004;-86
2022/12/28 01:16:20;;;;;;;1.83;1.08;;;;;;;-0.59;100.00;93637.56;2582026;23;20396;-86
2022/12/28 01:17:24;;;;;;;2.30;1.20;;;;;;;-0.59;100.00;93640.97;2570831;23;20383;-88
2022/12/28 01:18:25;;;;;;;2.67;1.33;;;;;;;-0.61;100.00;93640.53;2570366;23;20091;-86
2022/12/28 01:19:26;;;;;;;4.70;1.00;;;;;;;-0.61;100.00;93650.28;2581900;23;20023;-86
2022/12/28 01:20:27;;;;;;;1.48;0.80;;;;;;;-0.59;100.00;93630.47;2582122;22;20016;-88
2022/12/28 01:21:31;;;;;;;1.70;1.27;;;;;;;-0.55;100.00;93630.56;2582492;22;20003;-86
2022/12/28 01:22:32;;;;;;;3.78;1.10;;;;;;;-0.60;100.00;93631.56;2570029;23;20028;-86
2022/12/28 01:23:33;;;;;;;1.83;1.10;;;;;;;-0.64;100.00;93635.19;2581928;23;20004;-85
2022/12/28 01:24:34;;;;;;;4.38;2.03;;;;;;;-0.67;100.00;93627.97;2569288;23;20486;-87
2022/12/28 01:25:35;;;;;;;1.38;1.10;;;;;;;-0.67;100.00;93630.59;2569391;22;20035;-85
2022/12/28 01:26:36;;;;;;;3.38;1.40;;;;;;;-0.72;100.00;93630.81;2569278;23;20043;-85
2022/12/28 01:27:38;;;;;;;1.42;1.00;;;;;;;-0.70;100.00;93628.63;2569557;22;20008;-85
2022/12/28 01:28:39;;;;;;;3.05;1.10;;;;;;;-0.67;100.00;93628.72;2569705;23;20027;-85
2022/12/28 01:29:41;;;;;;;2.63;1.40;;;;;;;-0.70;100.00;93634.66;2557251;23;20440;-86
2022/12/28 01:30:42;;;;;;;2.38;1.00;;;;;;;-0.75;100.00;93629.63;2557382;23;20005;-86
2022/12/28 01:31:43;;;;;;;2.13;1.30;;;;;;;-0.77;100.00;93626.56;2582080;22;20717;-87
2022/12/28 01:32:44;;;;;;;1.35;1.20;;;;;;;-0.81;100.00;93617.81;2581874;23;20451;-85
2022/12/28 01:33:46;;;;;;;2.75;1.02;;;;;;;-0.83;100.00;93625.28;2569937;22;20004;-84
2022/12/28 01:34:47;;;;;;;2.70;1.38;;;;;;;-0.82;100.00;93632.81;2569491;23;20447;-87
2022/12/28 01:35:47;;;;;;;3.30;1.30;;;;;;;-0.83;100.00;93620.78;2569052;22;20008;-87
2022/12/28 01:36:50;;;;;;;3.15;1.13;;;;;;;-0.80;100.00;93630.59;2569375;23;20108;-88
2022/12/28 01:37:56;;;;;;;2.15;1.27;;;;;;;-0.72;100.00;93628.97;2571411;22;20420;-84
2022/12/28 01:39:01;;;;;;;2.28;1.27;;;;;;;-0.79;100.00;93629.53;2569538;23;20005;-87
2022/12/28 01:40:04;;;;;;;4.38;1.40;;;;;;;-0.86;100.00;93626.69;2558577;23;20005;-87
2022/12/28 01:41:07;;;;;;;3.72;1.38;;;;;;;-0.68;100.00;93618.56;2558272;23;20348;-88
2022/12/28 01:42:16;;;;;;;4.53;1.15;;;;;;;-0.63;100.00;93628.84;2557765;23;20526;-87
2022/12/28 01:43:17;;;;;;;2.17;1.50;;;;;;;-0.69;100.00;93630.94;2571111;23;20084;-86
2022/12/28 01:44:24;;;;;;;5.03;1.60;;;;;;;-0.73;100.00;93624.06;2569280;23;20013;-87
2022/12/28 01:45:25;;;;;;;5.13;1.52;;;;;;;-0.75;100.00;93627.00;2569319;23;20008;-87
2022/12/28 01:46:34;;;;;;;5.15;1.63;;;;;;;-0.77;100.00;93623.94;2556928;23;20009;-86
2022/12/28 01:47:35;;;;;;;3.63;1.73;;;;;;;-0.81;100.00;93623.84;2548262;23;20353;-87
2022/12/28 01:48:47;;;;;;;2.95;1.77;;;;;;;-0.79;100.00;93620.88;2544601;23;20029;-86
2022/12/28 01:49:53;;;;;;;4.10;1.58;;;;;;;-0.81;100.00;93612.56;2549282;23;20009;-86
2022/12/28 01:50:53;;;;;;;5.90;1.80;;;;;;;-0.70;100.00;93613.66;2557827;23;20009;-86
2022/12/28 01:51:54;;;;;;;2.30;1.63;;;;;;;-0.68;100.00;93610.69;2544563;23;20512;-86
2022/12/28 01:53:05;;;;;;;1.67;1.38;;;;;;;-0.43;100.00;93606.13;2548606;23;20005;-86
2022/12/28 01:54:06;;;;;;;2.55;1.50;;;;;;;-0.60;100.00;93613.19;2546649;23;20001;-86
2022/12/28 01:55:16;;;;;;;4.55;1.38;;;;;;;-0.62;100.00;93610.13;2544606;23;20006;-85
2022/12/28 01:56:19;;;;;;;2.72;1.85;;;;;;;-0.68;100.00;93608.81;2548525;23;20009;-87
2022/12/28 01:57:26;;;;;;;4.60;1.85;;;;;;;-0.72;100.00;93613.22;2545335;23;20005;-86
2022/12/28 01:58:31;;;;;;;3.95;1.90;;;;;;;-0.75;100.00;93611.25;2559475;23;20112;-87
2022/12/28 01:59:39;;;;;;;2.80;1.75;;;;;;;-0.77;100.00;93603.72;2570340;23;20011;-87
2022/12/28 02:00:40;;;;;;;5.57;1.67;;;;;;;-0.74;100.00;93610.16;2558380;23;20009;-87
2022/12/28 02:01:47;;;;;;;3.10;1.70;;;;;;;-0.79;100.00;93610.38;2547270;23;20024;-85
2022/12/28 02:02:54;;;;;;;3.85;2.03;;;;;;;-0.81;100.00;93615.97;2557303;23;20004;-87
2022/12/28 02:03:55;;;;;;;6.45;1.90;;;;;;;-0.79;100.00;93618.25;2558107;23;20452;-86
2022/12/28 02:04:57;;;;;;;5.03;1.73;;;;;;;-0.79;100.00;93613.00;2557426;23;20088;-85
2022/12/28 02:06:01;;;;;;;3.58;1.80;;;;;;;-0.82;100.00;93624.19;2558155;23;20020;-85
2022/12/28 02:07:02;;;;;;;3.55;1.83;;;;;;;-0.81;100.00;93617.81;2547780;23;20005;-87
2022/12/28 02:08:06;;;;;;;2.65;1.58;;;;;;;-0.76;100.00;93612.34;2546938;23;20441;-84
2022/12/28 02:09:17;;;;;;;1.88;1.67;;;;;;;-0.77;100.00;93616.81;2559417;23;20005;-86
2022/12/28 02:10:19;;;;;;;4.53;1.50;;;;;;;-0.77;100.00;93614.22;2560159;23;20472;-87
2022/12/28 02:11:20;;;;;;;3.17;1.33;;;;;;;-0.77;100.00;93608.97;2556609;23;20076;-85
2022/12/28 02:12:35;;;;;;;3.90;1.50;;;;;;;-0.74;100.00;93609.41;2550290;23;20001;-87
2022/12/28 02:13:37;;;;;;;2.53;1.70;;;;;;;-0.76;100.00;93607.84;2547098;23;20024;-86
2022/12/28 02:14:40;;;;;;;4.57;1.23;;;;;;;-0.72;100.00;93605.34;2556627;23;20149;-85
2022/12/28 02:15:41;;;;;;;2.30;1.13;;;;;;;-0.68;100.00;93614.06;2556493;23;20094;-87
2022/12/28 02:16:42;;;;;;;4.07;1.63;;;;;;;-0.66;100.00;93608.50;2544034;23;20006;-86
2022/12/28 02:17:44;;;;;;;2.88;1.38;;;;;;;-0.66;100.00;93609.28;2568629;23;20083;-86
2022/12/28 02:18:47;;;;;;;2.85;1.40;;;;;;;-0.62;100.00;93610.13;2567932;23;20001;-85
2022/12/28 02:19:48;;;;;;;2.15;1.58;;;;;;;-0.62;100.00;93606.72;2556386;23;20507;-86
2022/12/28 02:21:20;;;;;;;4.03;1.40;;;;;;;-0.61;100.00;93595.91;2556278;23;20088;-87
2022/12/28 02:22:35;;;;;;;1.50;1.40;;;;;;;-0.67;100.00;93602.47;2562540;23;20420;-86
2022/12/28 02:23:39;;;;;;;3.47;1.40;;;;;;;-0.68;100.00;93602.81;2558956;23;20080;-87
2022/12/28 02:24:59;;;;;;;1.50;1.30;;;;;;;-0.71;100.00;93601.59;2556949;23;20071;-87
2022/12/28 02:26:33;;;;;;;3.60;1.65;;;;;;;-0.70;100.00;93592.66;2564566;23;20009;-86
2022/12/28 02:27:56;;;;;;;3.53;1.50;;;;;;;-0.65;100.00;93599.53;2582047;23;20392;-86
2022/12/28 02:29:21;;;;;;;2.55;1.70;;;;;;;-0.69;100.00;93591.56;2569175;23;20610;-86
2022/12/28 02:30:22;;;;;;;2.47;1.65;;;;;;;-0.70;100.00;93592.66;2567035;23;20034;-87
2022/12/28 02:31:34;;;;;;;3.17;1.70;;;;;;;-0.73;100.00;93606.44;2581910;23;20035;-87
2022/12/28 02:33:07;;;;;;;4.18;1.55;;;;;;;-0.74;100.00;93597.03;2573765;23;20481;-85
2022/12/28 02:34:37;;;;;;;2.80;1.40;;;;;;;-0.79;100.00;93579.66;2569254;23;20008;-87
2022/12/28 02:35:47;;;;;;;4.18;2.85;;;;;;;-0.79;100.00;93571.78;2555357;23;20028;-85
2022/12/28 02:37:02;;;;;;;2.33;1.70;;;;;;;-0.84;100.00;93561.50;2548420;23;20020;-86
2022/12/28 02:38:28;;;;;;;3.35;1.80;;;;;;;-0.89;100.00;93577.50;2562362;23;20015;-86
2022/12/28 02:39:39;;;;;;;2.10;1.48;;;;;;;-0.88;100.00;93570.38;2562042;23;20015;-86
2022/12/28 02:40:45;;;;;;;4.25;1.95;;;;;;;-0.88;100.00;93570.38;2548445;23;20024;-87
2022/12/28 02:41:47;;;;;;;4.40;1.83;;;;;;;-0.82;100.00;93569.06;2559871;22;20448;-87
2022/12/28 02:42:48;;;;;;;4.45;2.10;;;;;;;-0.85;100.00;93575.72;2569161;23;20091;-87
2022/12/28 02:43:51;;;;;;;6.93;2.05;;;;;;;-0.88;100.00;93555.44;2569775;22;20503;-86
2022/12/28 02:50:58;;;;;;;3.33;1.80;;;;;;;-1.10;100.00;93545.41;2589122;22;20098;-86
2022/12/28 02:52:49;;;;;;;3.70;2.10;;;;;;;-1.01;100.00;93540.78;2575109;23;20000;-86
2022/12/28 02:53:53;;;;;;;2.13;1.77;;;;;;;-1.02;100.00;93540.03;2579700;23;20004;-87
2022/12/28 02:56:59;;;;;;;2.72;1.85;;;;;;;-1.08;100.00;93527.47;2595149;22;20019;-86
2022/12/28 02:58:18;;;;;;;4.22;1.77;;;;;;;-1.13;100.00;93530.34;2581626;23;20216;-86
2022/12/28 02:59:37;;;;;;;4.47;2.00;;;;;;;-1.12;100.00;93521.38;2585303;22;20316;-86
2022/12/28 03:00:58;;;;;;;4.63;1.80;;;;;;;-1.12;100.00;93522.13;2581667;23;20434;-87
2022/12/28 03:02:25;;;;;;;3.40;1.77;;;;;;;-1.16;100.00;93520.50;2573421;23;20541;-86
2022/12/28 03:03:43;;;;;;;4.05;2.05;;;;;;;-1.18;100.00;93515.59;2567410;23;20026;-86
2022/12/28 03:05:03;;;;;;;4.63;2.08;;;;;;;-1.21;100.00;93515.50;2572748;23;20313;-86
2022/12/28 03:08:18;;;;;;;6.15;1.50;;;;;;;-1.29;100.00;93523.13;2586791;22;20006;-87
2022/12/28 03:09:25;;;;;;;3.47;2.03;;;;;;;-1.31;100.00;93525.34;2579183;23;20122;-86
2022/12/28 03:10:44;;;;;;;2.75;1.88;;;;;;;-1.29;100.00;93527.63;2570329;23;20322;-84
2022/12/28 03:12:02;;;;;;;2.60;1.98;;;;;;;-1.30;100.00;93528.72;2572801;23;20001;-87
2022/12/28 03:13:41;;;;;;;2.75;2.10;;;;;;;-1.29;100.00;93525.75;2572100;23;20012;-87
2022/12/28 03:14:43;;;;;;;4.43;1.75;;;;;;;-1.22;100.00;93535.72;2580525;22;20010;-87
2022/12/28 03:15:45;;;;;;;3.85;1.73;;;;;;;-1.13;100.00;93535.59;2583452;22;20000;-88
2022/12/28 03:31:07;;;;;;;4.35;1.83;;;;;;;-1.35;100.00;93526.34;2587628;22;20007;-85
2022/12/28 03:32:12;;;;;;;2.60;1.83;;;;;;;-1.43;100.00;93522.72;2571753;23;20040;-85
2022/12/28 03:33:13;;;;;;;3.17;2.00;;;;;;;-1.38;100.00;93511.25;2570790;22;20004;-87
2022/12/28 03:34:15;;;;;;;2.72;1.80;;;;;;;-1.41;100.00;93523.16;2569608;23;20447;-85
2022/12/28 03:35:19;;;;;;;3.63;1.83;;;;;;;-1.43;100.00;93517.50;2557865;23;20111;-88
2022/12/28 03:36:55;;;;;;;4.72;1.90;;;;;;;-1.45;100.00;93516.28;2558581;23;20009;-87
2022/12/28 03:38:00;;;;;;;5.03;2.28;;;;;;;-1.45;100.00;93514.41;2539166;23;20065;-86
2022/12/28 03:39:06;;;;;;;3.90;1.70;;;;;;;-1.47;100.00;93514.00;2558195;23;20016;-83
2022/12/28 03:40:26;;;;;;;3.47;1.70;;;;;;;-1.49;100.00;93507.53;2559462;23;20231;-85
2022/12/28 03:43:41;;;;;;;3.53;1.65;;;;;;;-1.58;100.00;93478.84;2587522;22;20015;-86
2022/12/28 03:44:49;;;;;;;4.60;1.67;;;;;;;-1.55;100.00;93483.41;2575245;23;20000;-84
2022/12/28 03:45:56;;;;;;;3.97;1.98;;;;;;;-1.60;100.00;93492.28;2559970;23;20009;-86
2022/12/28 03:47:07;;;;;;;2.63;1.70;;;;;;;-1.60;100.00;93494.13;2560154;23;20084;-86
2022/12/28 03:48:11;;;;;;;1.70;1.40;;;;;;;-1.53;100.00;93492.50;2562284;23;20144;-87
2022/12/28 03:49:12;;;;;;;3.90;1.63;;;;;;;-1.56;100.00;93489.75;2557931;23;20364;-86
2022/12/28 03:50:14;;;;;;;2.65;2.00;;;;;;;-1.55;100.00;93491.28;2557802;23;20008;-87
2022/12/28 03:51:19;;;;;;;2.55;1.60;;;;;;;-1.60;100.00;93489.66;2557452;23;20043;-86
2022/12/28 03:52:24;;;;;;;2.22;1.73;;;;;;;-1.59;100.00;93485.16;2571309;23;20004;-86
2022/12/28 03:53:35;;;;;;;5.18;1.88;;;;;;;-1.55;100.00;93488.66;2558316;23;20337;-84
2022/12/28 03:54:36;;;;;;;2.33;1.90;;;;;;;-1.56;100.00;93490.53;2573687;22;20009;-86
2022/12/28 03:55:38;;;;;;;5.78;2.05;;;;;;;-1.57;100.00;93481.13;2595008;22;20079;-86
2022/12/28 03:56:48;;;;;;;3.22;1.63;;;;;;;-1.56;100.00;93490.53;2582159;23;20008;-86
2022/12/28 03:57:49;;;;;;;4.43;1.70;;;;;;;-1.55;100.00;93492.03;2571606;23;20337;-88
2022/12/28 03:58:51;;;;;;;3.15;1.70;;;;;;;-1.53;100.00;93486.50;2557367;23;20040;-86
2022/12/28 03:59:53;;;;;;;2.97;1.60;;;;;;;-1.54;100.00;93479.69;2570160;23;20088;-87
2022/12/28 04:00:54;;;;;;;3.28;1.88;;;;;;;-1.58;100.00;93473.59;2557492;23;20333;-86
2022/12/28 04:02:05;;;;;;;3.85;1.60;;;;;;;-1.62;100.00;93478.75;2574189;22;20004;-87
2022/12/28 04:03:07;;;;;;;4.25;1.65;;;;;;;-1.48;100.00;93477.63;2595018;22;20387;-87
2022/12/28 04:04:08;;;;;;;2.05;1.70;;;;;;;-1.42;100.00;93468.44;2569939;23;20058;-86
2022/12/28 04:05:09;;;;;;;3.20;1.58;;;;;;;-1.28;100.00;93468.84;2570092;23;20033;-88
2022/12/28 04:06:15;;;;;;;2.40;1.60;;;;;;;-1.29;100.00;93460.22;2557388;23;20593;-87
2022/12/28 04:07:16;;;;;;;2.25;1.38;;;;;;;-1.19;100.00;93464.22;2559596;23;20009;-87
2022/12/28 04:08:17;;;;;;;2.95;1.48;;;;;;;-1.25;100.00;93465.56;2569930;23;20008;-85
2022/12/28 04:09:18;;;;;;;4.18;1.40;;;;;;;-1.30;100.00;93463.94;2557430;23;20005;-87
2022/12/28 04:10:19;;;;;;;2.88;1.38;;;;;;;-1.28;100.00;93453.09;2582348;23;20004;-86
2022/12/28 04:11:20;;;;;;;1.88;1.45;;;;;;;-1.33;100.00;93461.22;2569903;23;20091;-87
2022/12/28 04:12:23;;;;;;;5.18;1.30;;;;;;;-1.36;100.00;93454.78;2570864;22;20004;-86
2022/12/28 04:13:28;;;;;;;4.40;1.60;;;;;;;-1.33;100.00;93456.72;2582399;23;20103;-85
2022/12/28 04:14:29;;;;;;;3.50;1.40;;;;;;;-1.30;100.00;93456.06;2570538;23;20424;-89
2022/12/28 04:15:30;;;;;;;5.03;1.40;;;;;;;-1.21;100.00;93457.78;2557309;23;20012;-85
2022/12/28 04:16:31;;;;;;;4.55;1.50;;;;;;;-1.21;100.00;93466.44;2557629;23;20870;-85
2022/12/28 04:17:32;;;;;;;3.13;1.40;;;;;;;-1.29;100.00;93454.97;2556983;23;20019;-86
2022/12/28 04:18:33;;;;;;;2.63;1.30;;;;;;;-1.29;100.00;93460.22;2569796;22;20094;-87
2022/12/28 04:19:34;;;;;;;2.60;1.30;;;;;;;-1.18;100.00;93459.75;2569858;23;20012;-86
2022/12/28 04:20:36;;;;;;;3.17;1.70;;;;;;;-1.17;100.00;93453.41;2569738;23;20084;-86
2022/12/28 04:21:38;;;;;;;3.10;1.40;;;;;;;-1.23;100.00;93445.00;2570952;22;20000;-87
2022/12/28 04:22:52;;;;;;;1.38;1.20;;;;;;;-1.26;100.00;93445.69;2572732;23;20095;-85
2022/12/28 04:23:53;;;;;;;1.45;1.20;;;;;;;-1.19;100.00;93438.00;2559970;23;20001;-87
2022/12/28 04:24:56;;;;;;;1.83;1.08;;;;;;;-1.22;100.00;93443.16;2569678;23;20007;-87
2022/12/28 04:26:02;;;;;;;1.92;1.30;;;;;;;-1.22;100.00;93440.53;2570178;23;20009;-86
2022/12/28 04:27:09;;;;;;;1.30;1.20;;;;;;;-1.21;100.00;93436.81;2562196;23;20053;-87
2022/12/28 04:28:10;;;;;;;1.70;1.27;;;;;;;-1.20;100.00;93439.09;2569569;23;20008;-85
2022/12/28 04:29:11;;;;;;;2.72;1.42;;;;;;;-1.20;100.00;93430.47;2557132;23;20013;-85
2022/12/28 04:30:12;;;;;;;1.60;1.20;;;;;;;-1.04;100.00;93434.66;2557142;23;20005;-87
2022/12/28 04:31:13;;;;;;;1.42;1.30;;;;;;;-0.96;100.00;93422.50;2557429;23;20080;-85
2022/12/28 04:32:14;;;;;;;1.52;1.10;;;;;;;-1.04;100.00;93424.19;2557359;23;20349;-88
2022/12/28 04:33:15;;;;;;;1.17;1.00;;;;;;;-1.11;100.00;93421.34;2557193;23;20040;-88
2022/12/28 04:34:16;;;;;;;2.42;1.33;;;;;;;-1.22;100.00;93411.69;2557112;23;20077;-86
2022/12/28 04:35:17;;;;;;;1.40;1.10;;;;;;;-1.15;100.00;93417.88;2569947;22;20005;-88
2022/12/28 04:36:22;;;;;;;3.97;1.30;;;;;;;-1.18;100.00;93417.81;2570319;23;20019;-88
2022/12/28 04:37:23;;;;;;;3.10;1.10;;;;;;;-1.15;100.00;93417.13;2558149;23;20020;-86
2022/12/28 04:38:25;;;;;;;2.63;1.48;;;;;;;-1.14;100.00;93418.63;2557298;23;20005;-88
2022/12/28 04:39:26;;;;;;;4.10;1.67;;;;;;;-1.11;100.00;93410.88;2569924;23;20443;-88
2022/12/28 04:40:27;;;;;;;1.70;1.17;;;;;;;-1.08;100.00;93414.69;2569732;22;20008;-86
2022/12/28 04:41:28;;;;;;;3.13;1.20;;;;;;;-0.92;100.00;93426.00;2569714;23;20008;-88
2022/12/28 04:42:29;;;;;;;1.58;1.30;;;;;;;-1.05;100.00;93427.91;2557178;23;20483;-86
2022/12/28 04:43:30;;;;;;;1.92;1.20;;;;;;;-1.05;100.00;93422.66;2582344;22;20031;-86
2022/12/28 04:44:32;;;;;;;3.70;1.10;;;;;;;-1.05;100.00;93424.53;2569524;23;20004;-85
2022/12/28 04:45:33;;;;;;;1.60;1.13;;;;;;;-1.08;100.00;93431.19;2557632;23;20012;-85
2022/12/28 04:46:35;;;;;;;1.30;1.20;;;;;;;-1.11;100.00;93433.72;2570365;22;20011;-86
2022/12/28 04:47:42;;;;;;;1.48;1.20;;;;;;;-1.13;100.00;93426.19;2582172;23;20370;-86
2022/12/28 04:48:43;;;;;;;4.20;1.83;;;;;;;-1.14;100.00;93432.53;2570846;23;20026;-87
2022/12/28 04:49:44;;;;;;;4.65;1.30;;;;;;;-1.11;100.00;93431.09;2569869;23;20000;-86
2022/12/28 04:50:45;;;;;;;2.90;1.23;;;;;;;-1.21;100.00;93437.56;2569425;23;20012;-86
2022/12/28 04:51:55;;;;;;;3.28;2.10;;;;;;;-1.17;100.00;93435.81;2557155;23;20005;-85
2022/12/28 04:52:59;;;;;;;4.78;2.10;;;;;;;-1.12;100.00;93419.84;2562117;23;20348;-85
2022/12/28 04:54:00;;;;;;;4.72;2.25;;;;;;;-1.15;100.00;93420.50;2570440;23;20004;-86
2022/12/28 04:55:02;;;;;;;4.72;1.63;;;;;;;-1.08;100.00;93427.81;2557207;23;20035;-87
2022/12/28 04:56:04;;;;;;;2.85;1.63;;;;;;;-1.05;100.00;93430.53;2557373;23;20048;-88
2022/12/28 04:57:05;;;;;;;2.38;1.38;;;;;;;-1.07;100.00;93424.84;2569775;23;20004;-85
2022/12/28 04:58:06;;;;;;;1.98;1.38;;;;;;;-1.10;100.00;93419.50;2557403;23;20044;-86
2022/12/28 04:59:07;;;;;;;7.15;1.50;;;;;;;-1.22;100.00;93419.56;2582121;22;19999;-87
2022/12/28 05:00:09;;;;;;;4.43;1.50;;;;;;;-1.23;100.00;93424.03;2594730;22;20086;-88
2022/12/28 05:01:16;;;;;;;5.35;1.38;;;;;;;-1.19;100.00;93424.13;2581849;23;20004;-88
2022/12/28 05:02:19;;;;;;;2.20;1.20;;;;;;;-1.06;100.00;93418.50;2559722;23;20336;-85
2022/12/28 05:03:20;;;;;;;2.50;1.40;;;;;;;-0.89;100.00;93416.66;2582072;22;20420;-87
2022/12/28 05:04:21;;;;;;;1.70;1.35;;;;;;;-0.97;100.00;93426.22;2581886;23;20022;-86
2022/12/28 05:05:22;;;;;;;4.13;1.35;;;;;;;-1.00;100.00;93426.16;2569452;22;20031;-88
2022/12/28 05:06:24;;;;;;;1.58;1.10;;;;;;;-1.00;100.00;93429.53;2582014;22;20000;-87
2022/12/28 05:07:33;;;;;;;1.25;1.02;;;;;;;-1.13;100.00;93423.56;2581767;23;20123;-88
2022/12/28 05:08:35;;;;;;;2.42;1.13;;;;;;;-1.12;100.00;93419.84;2571407;23;20389;-88
2022/12/28 05:09:36;;;;;;;2.80;1.88;;;;;;;-1.10;100.00;93416.88;2570107;22;20005;-87
2022/12/28 05:10:37;;;;;;;6.20;2.70;;;;;;;-1.12;100.00;93419.84;2569616;23;20337;-87
2022/12/28 05:11:38;;;;;;;2.58;2.10;;;;;;;-1.08;100.00;93427.81;2569606;23;20019;-87
2022/12/28 05:12:40;;;;;;;2.58;1.35;;;;;;;-1.10;100.00;93425.53;2557528;23;20005;-84
2022/12/28 05:13:42;;;;;;;1.65;1.50;;;;;;;-1.10;100.00;93417.66;2557942;23;20005;-86
2022/12/28 05:14:43;;;;;;;1.40;1.30;;;;;;;-1.13;100.00;93422.81;2570006;22;20007;-87
2022/12/28 05:15:44;;;;;;;3.03;1.27;;;;;;;-1.11;100.00;93429.22;2581703;23;20042;-85
2022/12/28 05:16:58;;;;;;;2.67;1.20;;;;;;;-0.99;100.00;93417.94;2572004;23;20004;-88
2022/12/28 05:17:59;;;;;;;1.30;1.20;;;;;;;-1.03;100.00;93417.81;2559948;23;20005;-87
2022/12/28 05:19:08;;;;;;;1.73;1.02;;;;;;;-1.02;100.00;93414.09;2557133;23;20507;-86
2022/12/28 05:20:09;;;;;;;2.15;1.40;;;;;;;-1.08;100.00;93420.69;2560557;23;20885;-88
2022/12/28 05:21:13;;;;;;;1.88;1.60;;;;;;;-1.12;100.00;93414.59;2557503;23;20329;-87
2022/12/28 05:22:15;;;;;;;2.42;1.20;;;;;;;-1.14;100.00;93419.41;2582665;22;20000;-85
2022/12/28 05:23:16;;;;;;;1.85;1.20;;;;;;;-1.13;100.00;93413.06;2582164;23;20466;-85
2022/12/28 05:24:19;;;;;;;4.40;1.40;;;;;;;-1.13;100.00;93410.44;2569830;22;20082;-87
2022/12/28 05:25:20;;;;;;;4.03;1.20;;;;;;;-1.14;100.00;93416.00;2582375;22;20008;-86
2022/12/28 05:26:33;;;;;;;2.97;1.23;;;;;;;-1.15;100.00;93417.88;2571866;23;20011;-86
2022/12/28 05:27:34;;;;;;;2.30;1.20;;;;;;;-1.20;100.00;93420.75;2572132;23;20634;-88
2022/12/28 05:28:35;;;;;;;4.88;1.30;;;;;;;-1.22;100.00;93409.06;2557095;23;20020;-85